createdAt,value
2022-11-16T00:00:45.125Z,934.77
2022-11-16T00:01:45.216Z,934.79
2022-11-16T00:02:45.158Z,934.79
2022-11-16T00:03:45.178Z,934.81
2022-11-16T00:04:45.194Z,934.84
2022-11-16T00:05:45.224Z,934.86
2022-11-16T00:06:45.232Z,934.86
2022-11-16T00:07:45.240Z,934.88
2022-11-16T00:08:45.258Z,934.87
2022-11-16T00:09:45.277Z,934.89
2022-11-16T00:10:45.294Z,934.90
2022-11-16T00:11:45.309Z,934.90
2022-11-16T00:12:45.324Z,934.89
2022-11-16T00:13:45.339Z,934.90
2022-11-16T00:14:45.359Z,934.94
2022-11-16T00:15:45.374Z,934.91
2022-11-16T00:16:45.390Z,934.92
2022-11-16T00:17:45.408Z,934.90
2022-11-16T00:18:45.424Z,934.94
2022-11-16T00:19:45.439Z,934.95
2022-11-16T00:20:45.455Z,934.94
2022-11-16T00:21:45.492Z,934.94
2022-11-16T00:22:45.492Z,934.95
2022-11-16T00:23:45.506Z,934.96
2022-11-16T00:24:45.525Z,935.01
2022-11-16T00:25:45.539Z,935.02
2022-11-16T00:26:45.556Z,934.97
2022-11-16T00:27:45.571Z,934.99
2022-11-16T00:28:45.588Z,935.01
2022-11-16T00:29:45.605Z,935.05
2022-11-16T00:30:45.648Z,935.05
2022-11-16T00:31:45.638Z,935.05
2022-11-16T00:32:45.653Z,935.09
2022-11-16T00:33:45.671Z,935.12
2022-11-16T00:34:45.687Z,935.10
2022-11-16T00:35:45.703Z,935.12
2022-11-16T00:36:45.722Z,935.14
2022-11-16T00:37:45.757Z,935.20
2022-11-16T00:38:45.756Z,935.15
2022-11-16T00:39:45.774Z,935.16
2022-11-16T00:40:45.790Z,935.22
2022-11-16T00:41:45.802Z,935.25
2022-11-16T00:42:45.820Z,935.25
2022-11-16T00:43:45.832Z,935.28
2022-11-16T00:44:45.851Z,935.23
2022-11-16T00:45:46.071Z,935.26
2022-11-16T00:46:45.884Z,935.27
2022-11-16T00:47:45.901Z,935.25
2022-11-16T00:48:45.919Z,935.26
2022-11-16T00:49:45.931Z,935.26
2022-11-16T00:50:45.950Z,935.27
2022-11-16T00:51:45.965Z,935.23
2022-11-16T00:52:45.982Z,935.27
2022-11-16T00:53:46.019Z,935.29
2022-11-16T00:54:46.016Z,935.28
2022-11-16T00:55:46.033Z,935.30
2022-11-16T00:56:46.048Z,935.34
2022-11-16T00:57:46.064Z,935.33
2022-11-16T00:58:46.080Z,935.32
2022-11-16T00:59:46.095Z,935.33
2022-11-16T01:00:46.114Z,935.33
2022-11-16T01:01:46.167Z,935.34
2022-11-16T01:02:46.147Z,935.38
2022-11-16T01:03:46.166Z,935.35
2022-11-16T01:04:46.176Z,935.36
2022-11-16T01:05:46.196Z,935.35
2022-11-16T01:06:46.216Z,935.39
2022-11-16T01:07:46.228Z,935.36
2022-11-16T01:08:46.242Z,935.37
2022-11-16T01:09:46.281Z,935.36
2022-11-16T01:10:46.278Z,935.34
2022-11-16T01:11:46.293Z,935.35
2022-11-16T01:12:46.311Z,935.34
2022-11-16T01:13:46.326Z,935.36
2022-11-16T01:14:46.343Z,935.31
2022-11-16T01:15:46.366Z,935.35
2022-11-16T01:16:46.376Z,935.31
2022-11-16T01:17:46.391Z,935.29
2022-11-16T01:18:46.408Z,935.32
2022-11-16T01:19:46.423Z,935.30
2022-11-16T01:20:46.441Z,935.32
2022-11-16T01:21:46.457Z,935.28
2022-11-16T01:22:46.472Z,935.29
2022-11-16T01:23:46.498Z,935.24
2022-11-16T01:24:46.506Z,935.24
2022-11-16T01:25:46.542Z,935.24
2022-11-16T01:26:46.536Z,935.20
2022-11-16T01:27:46.554Z,935.22
2022-11-16T01:28:46.569Z,935.22
2022-11-16T01:29:46.587Z,935.21
2022-11-16T01:30:46.603Z,935.23
2022-11-16T01:31:46.618Z,935.19
2022-11-16T01:32:46.638Z,935.17
2022-11-16T01:33:46.651Z,935.19
2022-11-16T01:34:46.669Z,935.11
2022-11-16T01:35:46.685Z,935.13
2022-11-16T01:36:46.704Z,935.10
2022-11-16T01:37:46.720Z,935.06
2022-11-16T01:38:46.736Z,935.01
2022-11-16T01:39:46.751Z,934.99
2022-11-16T01:40:46.765Z,934.99
2022-11-16T01:41:46.801Z,934.99
2022-11-16T01:42:46.812Z,935.03
2022-11-16T01:43:46.813Z,935.03
2022-11-16T01:44:46.831Z,935.05
2022-11-16T01:45:46.847Z,935.09
2022-11-16T01:46:46.862Z,935.10
2022-11-16T01:47:46.876Z,935.11
2022-11-16T01:48:46.928Z,935.09
2022-11-16T01:49:46.911Z,935.08
2022-11-16T01:50:46.926Z,935.09
2022-11-16T01:51:46.944Z,935.06
2022-11-16T01:52:46.982Z,935.03
2022-11-16T01:53:46.975Z,935.03
2022-11-16T01:54:47.001Z,935.02
2022-11-16T01:55:47.009Z,935.02
2022-11-16T01:56:47.025Z,935.04
2022-11-16T01:57:47.061Z,935.03
2022-11-16T01:58:47.057Z,935.06
2022-11-16T01:59:47.072Z,935.09
2022-11-16T02:00:47.137Z,935.06
2022-11-16T02:01:47.105Z,935.01
2022-11-16T02:02:47.124Z,935.05
2022-11-16T02:03:47.141Z,935.02
2022-11-16T02:04:47.152Z,935.01
2022-11-16T02:05:47.169Z,935.04
2022-11-16T02:06:47.247Z,935.05
2022-11-16T02:07:47.203Z,935.02
2022-11-16T02:08:47.217Z,935.05
2022-11-16T02:09:47.234Z,935.05
2022-11-16T02:10:47.250Z,935.05
2022-11-16T02:11:47.268Z,935.05
2022-11-16T02:12:47.283Z,935.08
2022-11-16T02:13:47.318Z,935.06
2022-11-16T02:14:47.312Z,935.08
2022-11-16T02:15:47.330Z,935.09
2022-11-16T02:16:47.347Z,935.09
2022-11-16T02:17:47.363Z,935.06
2022-11-16T02:18:47.380Z,935.04
2022-11-16T02:19:47.394Z,935.03
2022-11-16T02:20:47.409Z,935.02
2022-11-16T02:21:47.427Z,935.00
2022-11-16T02:22:47.444Z,935.00
2022-11-16T02:23:47.458Z,934.98
2022-11-16T02:24:47.478Z,935.00
2022-11-16T02:25:47.488Z,934.99
2022-11-16T02:26:47.506Z,934.98
2022-11-16T02:27:47.523Z,934.97
2022-11-16T02:28:47.539Z,934.91
2022-11-16T02:29:47.574Z,934.95
2022-11-16T02:30:47.572Z,934.91
2022-11-16T02:31:47.587Z,934.90
2022-11-16T02:32:47.602Z,934.91
2022-11-16T02:33:47.619Z,934.88
2022-11-16T02:34:47.635Z,934.90
2022-11-16T02:35:47.651Z,934.92
2022-11-16T02:36:47.667Z,934.92
2022-11-16T02:37:47.681Z,934.96
2022-11-16T02:38:47.698Z,934.96
2022-11-16T02:39:47.714Z,934.97
2022-11-16T02:40:47.730Z,934.98
2022-11-16T02:41:47.746Z,934.97
2022-11-16T02:42:47.764Z,934.99
2022-11-16T02:43:47.784Z,934.96
2022-11-16T02:44:47.793Z,934.96
2022-11-16T02:45:47.831Z,934.92
2022-11-16T02:46:47.827Z,934.92
2022-11-16T02:47:47.841Z,934.91
2022-11-16T02:48:47.858Z,934.87
2022-11-16T02:49:47.875Z,934.92
2022-11-16T02:50:47.894Z,934.87
2022-11-16T02:51:47.910Z,934.90
2022-11-16T02:52:47.921Z,934.93
2022-11-16T02:53:47.938Z,934.87
2022-11-16T02:54:47.954Z,934.88
2022-11-16T02:55:47.969Z,934.95
2022-11-16T02:56:47.987Z,934.91
2022-11-16T02:57:48.002Z,934.89
2022-11-16T02:58:48.018Z,934.86
2022-11-16T02:59:48.031Z,934.92
2022-11-16T03:00:48.126Z,934.88
2022-11-16T03:01:48.086Z,934.88
2022-11-16T03:02:48.081Z,934.88
2022-11-16T03:03:48.099Z,934.91
2022-11-16T03:04:48.114Z,934.89
2022-11-16T03:05:48.129Z,934.91
2022-11-16T03:06:48.232Z,934.91
2022-11-16T03:07:48.162Z,934.92
2022-11-16T03:08:48.176Z,934.88
2022-11-16T03:09:48.193Z,934.80
2022-11-16T03:10:48.208Z,934.80
2022-11-16T03:11:48.224Z,934.81
2022-11-16T03:12:48.239Z,934.81
2022-11-16T03:13:48.259Z,934.81
2022-11-16T03:14:48.272Z,934.75
2022-11-16T03:15:48.286Z,934.76
2022-11-16T03:16:48.304Z,934.75
2022-11-16T03:17:48.337Z,934.77
2022-11-16T03:18:48.337Z,934.73
2022-11-16T03:19:48.350Z,934.71
2022-11-16T03:20:48.369Z,934.71
2022-11-16T03:21:48.393Z,934.72
2022-11-16T03:22:48.417Z,934.72
2022-11-16T03:23:48.415Z,934.71
2022-11-16T03:24:48.431Z,934.73
2022-11-16T03:25:48.448Z,934.70
2022-11-16T03:26:48.465Z,934.67
2022-11-16T03:27:48.478Z,934.71
2022-11-16T03:28:48.495Z,934.73
2022-11-16T03:29:48.510Z,934.71
2022-11-16T03:30:48.544Z,934.67
2022-11-16T03:31:48.541Z,934.64
2022-11-16T03:32:48.557Z,934.65
2022-11-16T03:33:48.593Z,934.65
2022-11-16T03:34:48.595Z,934.63
2022-11-16T03:35:48.603Z,934.61
2022-11-16T03:36:48.620Z,934.62
2022-11-16T03:37:48.636Z,934.63
2022-11-16T03:38:48.653Z,934.62
2022-11-16T03:39:48.668Z,934.60
2022-11-16T03:40:48.684Z,934.60
2022-11-16T03:41:48.700Z,934.59
2022-11-16T03:42:48.716Z,934.59
2022-11-16T03:43:48.733Z,934.60
2022-11-16T03:44:48.746Z,934.61
2022-11-16T03:45:48.764Z,934.56
2022-11-16T03:46:48.782Z,934.60
2022-11-16T03:47:48.795Z,934.58
2022-11-16T03:48:48.813Z,934.55
2022-11-16T03:49:48.845Z,934.57
2022-11-16T03:50:48.842Z,934.53
2022-11-16T03:51:48.857Z,934.52
2022-11-16T03:52:48.875Z,934.53
2022-11-16T03:53:48.890Z,934.55
2022-11-16T03:54:48.907Z,934.50
2022-11-16T03:55:50.061Z,934.53
2022-11-16T03:56:48.935Z,934.50
2022-11-16T03:57:48.952Z,934.50
2022-11-16T03:58:48.970Z,934.49
2022-11-16T03:59:48.982Z,934.50
2022-11-16T04:00:49.045Z,934.46
2022-11-16T04:01:49.015Z,934.49
2022-11-16T04:02:49.033Z,934.46
2022-11-16T04:03:49.048Z,934.48
2022-11-16T04:04:49.062Z,934.46
2022-11-16T04:05:49.099Z,934.44
2022-11-16T04:06:49.140Z,934.43
2022-11-16T04:07:49.109Z,934.45
2022-11-16T04:08:49.126Z,934.46
2022-11-16T04:09:49.142Z,934.45
2022-11-16T04:10:50.371Z,934.45
2022-11-16T04:11:49.172Z,934.43
2022-11-16T04:12:49.188Z,934.43
2022-11-16T04:13:49.204Z,934.43
2022-11-16T04:14:49.222Z,934.33
2022-11-16T04:15:49.237Z,934.38
2022-11-16T04:16:49.251Z,934.33
2022-11-16T04:17:49.269Z,934.33
2022-11-16T04:18:49.284Z,934.35
2022-11-16T04:19:50.931Z,934.35
2022-11-16T04:20:49.315Z,934.30
2022-11-16T04:21:49.350Z,934.32
2022-11-16T04:22:49.347Z,934.32
2022-11-16T04:23:49.364Z,934.34
2022-11-16T04:24:49.377Z,934.33
2022-11-16T04:25:49.396Z,934.30
2022-11-16T04:27:23.832Z,934.29
2022-11-16T04:27:49.418Z,934.30
2022-11-16T04:28:49.483Z,934.29
2022-11-16T04:29:49.448Z,934.27
2022-11-16T04:30:49.465Z,934.32
2022-11-16T04:31:49.481Z,934.26
2022-11-16T04:32:49.497Z,934.24
2022-11-16T04:33:49.513Z,934.26
2022-11-16T04:34:49.528Z,934.23
2022-11-16T04:35:49.542Z,934.20
2022-11-16T04:36:49.559Z,934.21
2022-11-16T04:37:49.596Z,934.18
2022-11-16T04:38:49.590Z,934.20
2022-11-16T04:39:49.605Z,934.21
2022-11-16T04:40:49.622Z,934.20
2022-11-16T04:41:49.638Z,934.20
2022-11-16T04:42:49.652Z,934.23
2022-11-16T04:43:49.667Z,934.24
2022-11-16T04:44:49.683Z,934.21
2022-11-16T04:45:49.699Z,934.20
2022-11-16T04:46:49.714Z,934.15
2022-11-16T04:47:49.734Z,934.12
2022-11-16T04:48:49.746Z,934.11
2022-11-16T04:49:49.763Z,934.10
2022-11-16T04:50:49.777Z,934.10
2022-11-16T04:51:49.794Z,934.12
2022-11-16T04:52:49.813Z,934.08
2022-11-16T04:53:49.844Z,934.07
2022-11-16T04:54:49.858Z,934.13
2022-11-16T04:55:49.855Z,934.07
2022-11-16T04:56:49.872Z,934.08
2022-11-16T04:57:49.887Z,934.07
2022-11-16T04:58:49.914Z,934.06
2022-11-16T04:59:49.920Z,934.06
2022-11-16T05:00:49.936Z,934.08
2022-11-16T05:01:50.074Z,934.06
2022-11-16T05:02:49.966Z,934.05
2022-11-16T05:03:49.982Z,934.07
2022-11-16T05:04:49.999Z,934.03
2022-11-16T05:05:50.011Z,934.01
2022-11-16T05:06:50.090Z,934.02
2022-11-16T05:07:50.041Z,934.04
2022-11-16T05:08:50.060Z,934.04
2022-11-16T05:09:50.094Z,934.07
2022-11-16T05:10:50.091Z,934.05
2022-11-16T05:11:50.110Z,934.09
2022-11-16T05:12:50.122Z,934.07
2022-11-16T05:13:50.137Z,934.05
2022-11-16T05:14:50.154Z,934.02
2022-11-16T05:15:50.169Z,934.01
2022-11-16T05:16:50.189Z,934.05
2022-11-16T05:17:50.200Z,934.05
2022-11-16T05:18:50.217Z,934.08
2022-11-16T05:19:50.247Z,934.05
2022-11-16T05:20:50.247Z,934.06
2022-11-16T05:21:50.264Z,934.11
2022-11-16T05:22:50.281Z,934.08
2022-11-16T05:23:50.295Z,934.08
2022-11-16T05:24:50.310Z,934.12
2022-11-16T05:25:50.345Z,934.11
2022-11-16T05:26:50.341Z,934.10
2022-11-16T05:27:50.355Z,934.11
2022-11-16T05:28:50.372Z,934.13
2022-11-16T05:29:50.386Z,934.14
2022-11-16T05:30:50.404Z,934.11
2022-11-16T05:31:50.420Z,934.15
2022-11-16T05:32:50.435Z,934.14
2022-11-16T05:33:50.456Z,934.06
2022-11-16T05:34:50.466Z,934.09
2022-11-16T05:35:50.480Z,934.06
2022-11-16T05:36:50.698Z,934.05
2022-11-16T05:37:50.514Z,934.05
2022-11-16T05:38:53.924Z,934.05
2022-11-16T05:39:50.541Z,934.05
2022-11-16T05:40:50.559Z,934.04
2022-11-16T05:41:50.590Z,934.06
2022-11-16T05:42:50.590Z,934.06
2022-11-16T05:43:50.608Z,934.02
2022-11-16T05:44:50.620Z,934.06
2022-11-16T05:45:50.637Z,934.06
2022-11-16T05:46:50.652Z,934.06
2022-11-16T05:47:50.668Z,934.07
2022-11-16T05:48:50.682Z,934.07
2022-11-16T05:49:50.698Z,934.07
2022-11-16T05:50:50.716Z,934.08
2022-11-16T05:51:50.727Z,934.05
2022-11-16T05:52:50.746Z,934.04
2022-11-16T05:53:50.761Z,934.03
2022-11-16T05:54:50.777Z,934.02
2022-11-16T05:55:50.865Z,933.96
2022-11-16T05:56:50.805Z,933.98
2022-11-16T05:57:50.842Z,934.00
2022-11-16T05:58:50.841Z,933.94
2022-11-16T05:59:50.875Z,933.95
2022-11-16T06:00:50.868Z,933.97
2022-11-16T06:01:50.886Z,933.95
2022-11-16T06:02:50.936Z,933.92
2022-11-16T06:03:50.916Z,933.91
2022-11-16T06:04:50.952Z,933.92
2022-11-16T06:05:50.949Z,933.88
2022-11-16T06:06:51.008Z,933.86
2022-11-16T06:07:50.981Z,933.91
2022-11-16T06:08:50.992Z,933.87
2022-11-16T06:09:51.009Z,933.88
2022-11-16T06:10:51.029Z,933.88
2022-11-16T06:11:51.040Z,933.86
2022-11-16T06:12:51.060Z,933.81
2022-11-16T06:13:51.069Z,933.87
2022-11-16T06:14:51.088Z,933.86
2022-11-16T06:15:56.131Z,933.86
2022-11-16T06:16:51.471Z,933.85
2022-11-16T06:17:51.136Z,933.86
2022-11-16T06:18:51.147Z,933.84
2022-11-16T06:19:51.162Z,933.82
2022-11-16T06:20:51.178Z,933.82
2022-11-16T06:21:51.194Z,933.79
2022-11-16T06:22:51.211Z,933.80
2022-11-16T06:23:51.226Z,933.84
2022-11-16T06:24:51.241Z,933.83
2022-11-16T06:25:51.258Z,933.81
2022-11-16T06:26:51.272Z,933.86
2022-11-16T06:27:51.287Z,933.87
2022-11-16T06:28:51.302Z,933.84
2022-11-16T06:29:51.317Z,933.86
2022-11-16T06:30:51.334Z,933.87
2022-11-16T06:31:51.348Z,933.86
2022-11-16T06:32:51.476Z,933.84
2022-11-16T06:33:51.380Z,933.81
2022-11-16T06:34:51.397Z,933.81
2022-11-16T06:35:51.408Z,933.80
2022-11-16T06:36:51.425Z,933.78
2022-11-16T06:37:51.440Z,933.77
2022-11-16T06:38:51.457Z,933.75
2022-11-16T06:39:51.472Z,933.75
2022-11-16T06:40:51.489Z,933.77
2022-11-16T06:41:51.505Z,933.76
2022-11-16T06:42:51.519Z,933.73
2022-11-16T06:43:51.536Z,933.72
2022-11-16T06:44:51.549Z,933.72
2022-11-16T06:45:51.565Z,933.70
2022-11-16T06:46:52.592Z,933.68
2022-11-16T06:47:51.595Z,933.70
2022-11-16T06:48:51.967Z,933.68
2022-11-16T06:49:51.627Z,933.71
2022-11-16T06:50:51.643Z,933.67
2022-11-16T06:51:51.657Z,933.65
2022-11-16T06:52:51.673Z,933.68
2022-11-16T06:53:51.689Z,933.70
2022-11-16T06:54:51.705Z,933.68
2022-11-16T06:55:51.720Z,933.66
2022-11-16T06:56:51.736Z,933.67
2022-11-16T06:57:51.750Z,933.65
2022-11-16T06:58:53.458Z,933.61
2022-11-16T06:59:51.781Z,933.61
2022-11-16T07:00:51.797Z,933.56
2022-11-16T07:01:51.889Z,933.60
2022-11-16T07:02:51.827Z,933.52
2022-11-16T07:03:51.844Z,933.53
2022-11-16T07:04:51.970Z,933.55
2022-11-16T07:05:51.877Z,933.55
2022-11-16T07:06:51.912Z,933.51
2022-11-16T07:07:51.909Z,933.54
2022-11-16T07:08:51.919Z,933.56
2022-11-16T07:09:51.937Z,933.54
2022-11-16T07:10:51.953Z,933.52
2022-11-16T07:11:51.968Z,933.54
2022-11-16T07:12:51.980Z,933.52
2022-11-16T07:13:52.000Z,933.57
2022-11-16T07:14:52.019Z,933.55
2022-11-16T07:15:52.026Z,933.55
2022-11-16T07:16:57.893Z,933.53
2022-11-16T07:17:52.058Z,933.53
2022-11-16T07:18:52.074Z,933.56
2022-11-16T07:19:52.089Z,933.60
2022-11-16T07:20:52.220Z,933.58
2022-11-16T07:21:52.121Z,933.62
2022-11-16T07:22:52.136Z,933.61
2022-11-16T07:23:52.153Z,933.64
2022-11-16T07:24:52.167Z,933.65
2022-11-16T07:25:52.185Z,933.66
2022-11-16T07:26:52.198Z,933.65
2022-11-16T07:27:52.214Z,933.67
2022-11-16T07:28:52.228Z,933.70
2022-11-16T07:29:52.245Z,933.70
2022-11-16T07:30:52.259Z,933.73
2022-11-16T07:31:52.275Z,933.68
2022-11-16T07:32:52.291Z,933.68
2022-11-16T07:33:52.305Z,933.68
2022-11-16T07:34:52.320Z,933.66
2022-11-16T07:35:52.336Z,933.68
2022-11-16T07:36:52.370Z,933.70
2022-11-16T07:37:52.369Z,933.71
2022-11-16T07:38:52.383Z,933.64
2022-11-16T07:39:52.398Z,933.71
2022-11-16T07:40:52.413Z,933.68
2022-11-16T07:41:52.427Z,933.71
2022-11-16T07:42:52.444Z,933.72
2022-11-16T07:43:53.381Z,933.72
2022-11-16T07:44:52.484Z,933.75
2022-11-16T07:45:52.491Z,933.73
2022-11-16T07:46:52.506Z,933.71
2022-11-16T07:47:52.535Z,933.75
2022-11-16T07:48:52.536Z,933.74
2022-11-16T07:49:52.551Z,933.77
2022-11-16T07:50:52.569Z,933.78
2022-11-16T07:51:52.582Z,933.83
2022-11-16T07:52:52.855Z,933.84
2022-11-16T07:53:52.612Z,933.85
2022-11-16T07:54:52.628Z,933.89
2022-11-16T07:55:52.657Z,933.90
2022-11-16T07:56:52.657Z,933.84
2022-11-16T07:57:53.646Z,933.86
2022-11-16T07:58:52.689Z,933.84
2022-11-16T07:59:52.705Z,933.86
2022-11-16T08:00:52.720Z,933.87
2022-11-16T08:01:52.855Z,933.87
2022-11-16T08:02:52.752Z,933.89
2022-11-16T08:03:52.764Z,933.86
2022-11-16T08:04:52.782Z,933.89
2022-11-16T08:05:52.798Z,933.88
2022-11-16T08:06:52.923Z,933.89
2022-11-16T08:07:52.827Z,933.93
2022-11-16T08:08:57.977Z,933.94
2022-11-16T08:09:52.904Z,933.95
2022-11-16T08:10:52.873Z,933.95
2022-11-16T08:11:52.890Z,933.99
2022-11-16T08:12:52.904Z,934.00
2022-11-16T08:13:52.920Z,934.02
2022-11-16T08:14:52.942Z,934.06
2022-11-16T08:15:52.954Z,934.04
2022-11-16T08:16:52.969Z,934.06
2022-11-16T08:17:52.981Z,934.06
2022-11-16T08:18:52.998Z,934.08
2022-11-16T08:19:53.011Z,934.11
2022-11-16T08:20:53.024Z,934.09
2022-11-16T08:21:53.042Z,934.08
2022-11-16T08:22:53.055Z,934.09
2022-11-16T08:23:58.092Z,934.07
2022-11-16T08:24:53.114Z,934.11
2022-11-16T08:25:53.105Z,934.06
2022-11-16T08:26:53.119Z,934.10
2022-11-16T08:27:53.133Z,934.08
2022-11-16T08:28:53.150Z,934.11
2022-11-16T08:29:53.175Z,934.14
2022-11-16T08:30:54.034Z,934.15
2022-11-16T08:31:53.201Z,934.16
2022-11-16T08:32:53.229Z,934.18
2022-11-16T08:33:53.232Z,934.17
2022-11-16T08:34:53.281Z,934.19
2022-11-16T08:35:53.257Z,934.23
2022-11-16T08:36:53.272Z,934.23
2022-11-16T08:37:53.287Z,934.24
2022-11-16T08:38:53.304Z,934.27
2022-11-16T08:39:53.318Z,934.26
2022-11-16T08:40:53.460Z,934.31
2022-11-16T08:41:53.348Z,934.37
2022-11-16T08:42:53.367Z,934.32
2022-11-16T08:43:53.592Z,934.39
2022-11-16T08:44:53.394Z,934.40
2022-11-16T08:45:53.411Z,934.44
2022-11-16T08:46:53.431Z,934.47
2022-11-16T08:48:03.167Z,934.50
2022-11-16T08:48:53.456Z,934.48
2022-11-16T08:49:53.472Z,934.53
2022-11-16T08:51:16.423Z,934.57
2022-11-16T08:51:53.504Z,934.55
2022-11-16T08:52:53.516Z,934.60
2022-11-16T08:53:53.532Z,934.58
2022-11-16T08:54:53.546Z,934.64
2022-11-16T08:55:53.563Z,934.65
2022-11-16T08:56:53.693Z,934.65
2022-11-16T08:57:53.595Z,934.67
2022-11-16T08:58:58.110Z,934.66
2022-11-16T08:59:53.625Z,934.67
2022-11-16T09:00:53.638Z,934.67
2022-11-16T09:01:53.718Z,934.70
2022-11-16T09:02:53.671Z,934.70
2022-11-16T09:03:53.689Z,934.69
2022-11-16T09:04:53.703Z,934.70
2022-11-16T09:05:53.716Z,934.70
2022-11-16T09:06:53.758Z,934.70
2022-11-16T09:07:53.746Z,934.74
2022-11-16T09:08:53.768Z,934.75
2022-11-16T09:09:53.778Z,934.71
2022-11-16T09:10:53.790Z,934.76
2022-11-16T09:11:53.807Z,934.74
2022-11-16T09:12:53.931Z,934.76
2022-11-16T09:13:53.837Z,934.77
2022-11-16T09:14:53.851Z,934.81
2022-11-16T09:15:53.868Z,934.82
2022-11-16T09:16:53.884Z,934.83
2022-11-16T09:17:53.899Z,934.85
2022-11-16T09:18:53.913Z,934.90
2022-11-16T09:19:53.927Z,934.88
2022-11-16T09:20:53.944Z,934.91
2022-11-16T09:21:53.959Z,934.95
2022-11-16T09:22:53.974Z,934.97
2022-11-16T09:23:53.991Z,934.97
2022-11-16T09:24:54.006Z,934.97
2022-11-16T09:25:54.021Z,934.97
2022-11-16T09:26:54.036Z,934.99
2022-11-16T09:27:54.050Z,935.02
2022-11-16T09:28:54.180Z,934.99
2022-11-16T09:29:54.081Z,934.99
2022-11-16T09:30:54.098Z,934.98
2022-11-16T09:31:54.518Z,934.94
2022-11-16T09:32:54.127Z,934.98
2022-11-16T09:33:54.143Z,934.98
2022-11-16T09:34:54.162Z,935.04
2022-11-16T09:35:54.174Z,935.03
2022-11-16T09:36:54.187Z,935.01
2022-11-16T09:37:54.202Z,935.00
2022-11-16T09:39:54.232Z,935.00
2022-11-16T09:40:54.250Z,935.02
2022-11-16T09:41:54.265Z,935.03
2022-11-16T09:42:54.282Z,935.05
2022-11-16T09:43:54.295Z,935.07
2022-11-16T09:44:54.423Z,935.13
2022-11-16T09:45:54.326Z,935.13
2022-11-16T09:46:54.342Z,935.16
2022-11-16T09:47:54.357Z,935.21
2022-11-16T09:48:54.373Z,935.23
2022-11-16T09:49:59.888Z,935.23
2022-11-16T09:50:54.401Z,935.25
2022-11-16T09:51:54.425Z,935.23
2022-11-16T09:52:54.433Z,935.31
2022-11-16T09:53:54.447Z,935.29
2022-11-16T09:54:54.463Z,935.28
2022-11-16T09:55:54.476Z,935.35
2022-11-16T09:56:54.494Z,935.34
2022-11-16T09:57:54.508Z,935.34
2022-11-16T09:58:54.523Z,935.39
2022-11-16T09:59:54.538Z,935.39
2022-11-16T10:00:54.730Z,935.43
2022-11-16T10:01:54.585Z,935.46
2022-11-16T10:02:54.588Z,935.47
2022-11-16T10:03:54.601Z,935.49
2022-11-16T10:04:58.142Z,935.45
2022-11-16T10:05:54.630Z,935.53
2022-11-16T10:06:54.711Z,935.56
2022-11-16T10:07:54.661Z,935.59
2022-11-16T10:08:54.675Z,935.56
2022-11-16T10:09:54.692Z,935.60
2022-11-16T10:10:54.710Z,935.58
2022-11-16T10:11:54.734Z,935.63
2022-11-16T10:12:54.736Z,935.58
2022-11-16T10:13:54.752Z,935.60
2022-11-16T10:14:54.767Z,935.59
2022-11-16T10:15:54.783Z,935.62
2022-11-16T10:16:54.833Z,935.65
2022-11-16T10:17:54.810Z,935.65
2022-11-16T10:18:54.828Z,935.65
2022-11-16T10:19:54.861Z,935.65
2022-11-16T10:20:54.859Z,935.64
2022-11-16T10:21:54.876Z,935.65
2022-11-16T10:22:54.889Z,935.71
2022-11-16T10:23:54.903Z,935.70
2022-11-16T10:24:54.919Z,935.71
2022-11-16T10:25:54.936Z,935.76
2022-11-16T10:26:54.951Z,935.75
2022-11-16T10:27:54.966Z,935.75
2022-11-16T10:28:54.981Z,935.78
2022-11-16T10:29:54.996Z,935.73
2022-11-16T10:30:55.011Z,935.75
2022-11-16T10:31:55.026Z,935.76
2022-11-16T10:32:55.058Z,935.76
2022-11-16T10:33:55.061Z,935.82
2022-11-16T10:34:55.074Z,935.80
2022-11-16T10:35:55.086Z,935.85
2022-11-16T10:36:55.102Z,935.87
2022-11-16T10:37:55.116Z,935.86
2022-11-16T10:38:55.133Z,935.88
2022-11-16T10:39:55.148Z,935.88
2022-11-16T10:40:55.169Z,935.95
2022-11-16T10:41:55.179Z,935.90
2022-11-16T10:42:55.194Z,935.91
2022-11-16T10:43:55.208Z,935.92
2022-11-16T10:44:55.224Z,936.00
2022-11-16T10:45:55.240Z,935.93
2022-11-16T10:46:55.255Z,935.94
2022-11-16T10:47:55.270Z,935.96
2022-11-16T10:48:55.401Z,935.97
2022-11-16T10:49:55.303Z,936.00
2022-11-16T10:50:55.317Z,936.00
2022-11-16T10:51:55.331Z,936.02
2022-11-16T10:52:55.344Z,936.05
2022-11-16T10:53:55.363Z,936.06
2022-11-16T10:54:55.378Z,936.05
2022-11-16T10:55:55.392Z,936.08
2022-11-16T10:56:55.408Z,936.14
2022-11-16T10:57:55.424Z,936.19
2022-11-16T10:58:55.437Z,936.21
2022-11-16T10:59:55.511Z,936.26
2022-11-16T11:00:55.540Z,936.24
2022-11-16T11:01:55.489Z,936.27
2022-11-16T11:02:55.507Z,936.27
2022-11-16T11:03:55.522Z,936.24
2022-11-16T11:04:55.648Z,936.24
2022-11-16T11:05:55.573Z,936.19
2022-11-16T11:07:41.541Z,936.19
2022-11-16T11:07:59.561Z,936.19
2022-11-16T11:08:55.597Z,936.18
2022-11-16T11:09:55.613Z,936.18
2022-11-16T11:10:55.629Z,936.23
2022-11-16T11:11:55.642Z,936.19
2022-11-16T11:12:55.659Z,936.19
2022-11-16T11:13:55.674Z,936.20
2022-11-16T11:14:55.688Z,936.19
2022-11-16T11:15:55.711Z,936.19
2022-11-16T11:16:55.720Z,936.24
2022-11-16T11:17:55.736Z,936.23
2022-11-16T11:18:55.754Z,936.21
2022-11-16T11:19:55.765Z,936.19
2022-11-16T11:20:55.894Z,936.20
2022-11-16T11:21:55.797Z,936.19
2022-11-16T11:22:55.810Z,936.15
2022-11-16T11:23:59.457Z,936.12
2022-11-16T11:24:55.841Z,936.14
2022-11-16T11:25:55.857Z,936.12
2022-11-16T11:26:55.871Z,936.20
2022-11-16T11:27:55.884Z,936.22
2022-11-16T11:28:55.901Z,936.22
2022-11-16T11:29:55.917Z,936.25
2022-11-16T11:30:55.938Z,936.27
2022-11-16T11:31:55.950Z,936.28
2022-11-16T11:32:55.964Z,936.26
2022-11-16T11:33:55.981Z,936.31
2022-11-16T11:34:55.993Z,936.25
2022-11-16T11:35:56.008Z,936.27
2022-11-16T11:36:56.041Z,936.28
2022-11-16T11:37:56.038Z,936.26
2022-11-16T11:38:59.160Z,936.28
2022-11-16T11:39:56.068Z,936.25
2022-11-16T11:40:56.082Z,936.25
2022-11-16T11:41:56.099Z,936.24
2022-11-16T11:42:56.117Z,936.27
2022-11-16T11:43:56.129Z,936.30
2022-11-16T11:44:56.146Z,936.27
2022-11-16T11:45:56.160Z,936.26
2022-11-16T11:47:42.210Z,936.27
2022-11-16T11:47:58.613Z,936.27
2022-11-16T11:48:56.205Z,936.30
2022-11-16T11:49:56.221Z,936.26
2022-11-16T11:50:56.240Z,936.24
2022-11-16T11:51:56.254Z,936.26
2022-11-16T11:52:56.383Z,936.25
2022-11-16T11:53:56.299Z,936.28
2022-11-16T11:54:56.299Z,936.30
2022-11-16T11:55:56.311Z,936.28
2022-11-16T11:56:56.329Z,936.31
2022-11-16T11:57:56.344Z,936.31
2022-11-16T11:58:56.359Z,936.32
2022-11-16T11:59:56.373Z,936.34
2022-11-16T12:00:56.389Z,936.34
2022-11-16T12:01:56.418Z,936.32
2022-11-16T12:02:56.471Z,936.31
2022-11-16T12:03:56.435Z,936.30
2022-11-16T12:04:56.448Z,936.37
2022-11-16T12:05:56.465Z,936.34
2022-11-16T12:06:56.554Z,936.36
2022-11-16T12:07:56.495Z,936.40
2022-11-16T12:08:56.621Z,936.39
2022-11-16T12:09:56.526Z,936.41
2022-11-16T12:10:56.542Z,936.40
2022-11-16T12:11:56.559Z,936.33
2022-11-16T12:12:56.573Z,936.32
2022-11-16T12:13:56.588Z,936.35
2022-11-16T12:14:56.602Z,936.32
2022-11-16T12:15:56.618Z,936.33
2022-11-16T12:16:56.633Z,936.35
2022-11-16T12:17:56.648Z,936.37
2022-11-16T12:18:56.666Z,936.36
2022-11-16T12:19:56.678Z,936.32
2022-11-16T12:20:56.696Z,936.35
2022-11-16T12:21:56.710Z,936.33
2022-11-16T12:23:01.113Z,936.44
2022-11-16T12:23:56.739Z,936.38
2022-11-16T12:24:56.776Z,936.36
2022-11-16T12:25:56.781Z,936.34
2022-11-16T12:26:56.787Z,936.33
2022-11-16T12:27:56.801Z,936.35
2022-11-16T12:28:56.817Z,936.35
2022-11-16T12:29:56.832Z,936.27